Time;durP1;ratioP1;P1;durP2;ratioP2;P2;SDS_P1;SDS_P2;PMS_P1;PMS_P2;Temp;Humidity;BMP_temperature;BMP_pressure;BME280_temperature;BME280_humidity;BME280_pressure;Samples;Min_cycle;Max_cycle;Signal;HPM_P1;HPM_P2
2021/12/03 00:03:48;;;;;;;;;;;0.30;99.90;;;;;;8360889;28;19951;-67
2021/12/03 00:07:48;;;;;;;;;;;0.30;99.90;;;;;;8360353;28;19913;-66
2021/12/03 00:11:49;;;;;;;;;;;0.50;99.90;;;;;;8354798;28;20295;-67
2021/12/03 00:15:50;;;;;;;;;;;0.30;99.90;;;;;;8357949;28;19908;-66
2021/12/03 00:19:50;;;;;;;;;;;0.40;99.90;;;;;;8363841;28;19985;-66
2021/12/03 00:23:51;;;;;;;;;;;0.40;99.90;;;;;;8367652;28;19909;-67
2021/12/03 00:27:52;;;;;;;;;;;0.40;99.90;;;;;;8367231;28;20389;-66
2021/12/03 00:31:52;;;;;;;;;;;0.40;99.90;;;;;;8367395;28;19908;-66
2021/12/03 00:35:53;;;;;;;;;;;0.40;99.90;;;;;;8367736;28;19959;-66
2021/12/03 00:39:54;;;;;;;;;;;0.50;99.90;;;;;;8367459;28;19962;-66
2021/12/03 00:43:54;;;;;;;;;;;0.50;99.90;;;;;;8358490;28;20000;-66
2021/12/03 00:47:55;;;;;;;;;;;0.40;99.90;;;;;;8349921;28;20573;-66
2021/12/03 00:51:55;;;;;;;;;;;0.50;99.90;;;;;;8367074;28;20011;-66
2021/12/03 00:55:56;;;;;;;;;;;0.60;99.90;;;;;;8367012;28;19916;-66
2021/12/03 00:59:56;;;;;;;;;;;0.50;99.90;;;;;;8348518;28;19909;-66
2021/12/03 01:03:57;;;;;;;;;;;0.40;99.90;;;;;;8367260;28;20429;-66
2021/12/03 01:07:57;;;;;;;;;;;0.40;99.90;;;;;;8366677;28;19924;-66
2021/12/03 01:11:58;;;;;;;;;;;0.30;99.90;;;;;;8366473;28;19920;-66
2021/12/03 01:15:59;;;;;;;;;;;0.10;99.90;;;;;;8335959;28;20004;-67
2021/12/03 01:20:04;;;;;;;;;;;0.20;99.90;;;;;;8333551;28;19964;-66
2021/12/03 01:24:05;;;;;;;;;;;0.00;99.90;;;;;;8316053;28;20600;-66
2021/12/03 01:28:06;;;;;;;;;;;0.20;99.90;;;;;;8315404;28;19924;-66
2021/12/03 01:32:06;;;;;;;;;;;0.10;99.90;;;;;;8331422;28;19910;-66
2021/12/03 01:36:10;;;;;;;;;;;0.20;99.90;;;;;;8332626;28;20011;-66
2021/12/03 01:40:12;;;;;;;;;;;0.20;99.90;;;;;;8332969;28;19909;-66
2021/12/03 01:44:12;;;;;;;;;;;0.30;99.90;;;;;;8358010;28;20286;-66
2021/12/03 01:48:13;;;;;;;;;;;0.30;99.90;;;;;;8347972;28;19919;-66
2021/12/03 02:01:29;;;;;;;;;;;0.30;99.90;;;;;;8359428;28;19983;-66
2021/12/03 02:06:07;;;;;;;;;;;0.30;99.90;;;;;;8341697;28;19909;-67
2021/12/03 02:10:07;;;;;;;;;;;0.20;99.90;;;;;;8335871;28;19913;-66
2021/12/03 02:14:08;;;;;;;;;;;0.20;99.90;;;;;;8358867;28;19948;-66
2021/12/03 02:18:10;;;;;;;;;;;0.30;99.90;;;;;;8345352;28;19909;-66
2021/12/03 02:26:49;;;;;;;;;;;0.10;99.90;;;;;;8343836;28;19937;-66
2021/12/03 02:30:50;;;;;;;;;;;0.20;99.90;;;;;;8337357;28;19910;-66
2021/12/03 02:34:51;;;;;;;;;;;0.10;99.90;;;;;;8331472;28;19920;-66
2021/12/03 02:38:52;;;;;;;;;;;0.10;99.90;;;;;;8331088;28;19913;-66
2021/12/03 02:42:52;;;;;;;;;;;0.10;99.90;;;;;;8330548;28;19909;-66
2021/12/03 02:46:53;;;;;;;;;;;0.10;99.90;;;;;;8331183;28;20729;-66
2021/12/03 02:50:54;;;;;;;;;;;0.10;99.90;;;;;;8331348;28;19944;-66
2021/12/03 02:54:55;;;;;;;;;;;0.10;99.90;;;;;;8331631;28;19908;-66
2021/12/03 02:58:55;;;;;;;;;;;0.20;99.90;;;;;;8340479;28;19936;-66
2021/12/03 03:02:56;;;;;;;;;;;0.20;99.90;;;;;;8329771;28;19951;-66
2021/12/03 03:06:57;;;;;;;;;;;0.10;99.90;;;;;;8328656;28;20010;-66
2021/12/03 03:10:58;;;;;;;;;;;0.20;99.90;;;;;;8330338;28;19909;-66
2021/12/03 03:14:59;;;;;;;;;;;0.10;99.90;;;;;;8339825;28;19920;-66
2021/12/03 03:19:08;;;;;;;;;;;0.10;99.90;;;;;;8363029;28;19913;-66
2021/12/03 03:23:09;;;;;;;;;;;0.00;99.90;;;;;;8362263;28;19919;-65
2021/12/03 03:27:10;;;;;;;;;;;0.10;99.90;;;;;;8352601;28;19924;-66
2021/12/03 03:31:10;;;;;;;;;;;0.10;99.90;;;;;;8329713;28;19910;-66
2021/12/03 03:35:11;;;;;;;;;;;0.20;99.90;;;;;;8350446;23;20990;-63
2021/12/03 03:39:12;;;;;;;;;;;0.10;99.90;;;;;;8327429;28;20356;-63
2021/12/03 03:43:13;;;;;;;;;;;0.20;99.90;;;;;;8327308;28;20647;-63
2021/12/03 03:47:14;;;;;;;;;;;0.20;99.90;;;;;;8327426;28;20088;-63
2021/12/03 03:51:15;;;;;;;;;;;0.30;99.90;;;;;;8309661;28;19913;-63
2021/12/03 03:59:54;;;;;;;;;;;0.10;99.90;;;;;;8316656;28;19916;-63
2021/12/03 04:03:54;;;;;;;;;;;0.20;99.90;;;;;;8326344;28;19909;-63
2021/12/03 04:07:58;;;;;;;;;;;0.20;99.90;;;;;;8323109;28;20004;-62
2021/12/03 04:11:58;;;;;;;;;;;0.20;99.90;;;;;;8311138;28;19966;-62
2021/12/03 04:15:59;;;;;;;;;;;0.20;99.90;;;;;;8321379;28;19920;-63
2021/12/03 04:19:59;;;;;;;;;;;0.30;99.90;;;;;;8322282;28;19909;-62
2021/12/03 04:23:59;;;;;;;;;;;0.30;99.90;;;;;;8323900;28;20004;-62
2021/12/03 04:28:00;;;;;;;;;;;0.30;99.90;;;;;;8325943;28;19920;-63
2021/12/03 04:32:01;;;;;;;;;;;0.30;99.90;;;;;;8326314;28;19913;-63
2021/12/03 04:36:01;;;;;;;;;;;0.30;99.90;;;;;;8326397;28;20375;-63
2021/12/03 04:40:03;;;;;;;;;;;0.20;99.90;;;;;;8326422;28;19916;-63
2021/12/03 04:44:03;;;;;;;;;;;0.20;99.90;;;;;;8325390;28;19964;-62
2021/12/03 04:48:05;;;;;;;;;;;0.10;99.90;;;;;;8329292;28;20411;-62
2021/12/03 04:52:08;;;;;;;;;;;0.00;99.90;;;;;;8317349;28;19957;-63
2021/12/03 04:56:09;;;;;;;;;;;-0.10;99.90;;;;;;8321737;28;19925;-63
2021/12/03 05:00:16;;;;;;;;;;;-0.10;99.90;;;;;;8324764;28;20010;-63
2021/12/03 05:04:17;;;;;;;;;;;-0.20;99.90;;;;;;8321953;28;19913;-63
2021/12/03 05:08:17;;;;;;;;;;;-0.20;99.90;;;;;;8331942;28;19913;-63
2021/12/03 05:55:45;;;;;;;;;;;-0.50;99.90;;;;;;8316117;28;20578;-63
2021/12/03 06:04:24;;;;;;;;;;;-0.60;99.90;;;;;;8295036;28;19940;-62
2021/12/03 06:41:10;;;;;;;;;;;-0.80;99.90;;;;;;8325654;28;19935;-63
2021/12/03 06:45:12;;;;;;;;;;;-0.80;99.90;;;;;;8300868;28;20469;-63
2021/12/03 06:49:13;;;;;;;;;;;-1.10;99.90;;;;;;8303324;28;19925;-61
2021/12/03 06:53:15;;;;;;;;;;;-1.10;99.90;;;;;;8297292;28;19917;-62
2021/12/03 06:57:16;;;;;;;;;;;-0.90;99.90;;;;;;8323088;28;19917;-62
2021/12/03 07:01:16;;;;;;;;;;;-0.80;99.90;;;;;;8320329;28;19928;-62
2021/12/03 07:05:17;;;;;;;;;;;-1.00;99.90;;;;;;8326361;28;19913;-62
2021/12/03 07:09:17;;;;;;;;;;;-1.30;99.90;;;;;;8327141;28;19913;-62
2021/12/03 07:13:18;;;;;;;;;;;-1.30;99.90;;;;;;8326503;28;19959;-62
2021/12/03 07:21:56;;;;;;;;;;;-1.40;99.90;;;;;;8311279;28;19924;-61
2021/12/03 07:25:59;;;;;;;;;;;-1.70;99.90;;;;;;8321447;28;19917;-61
2021/12/03 07:29:59;;;;;;;;;;;-1.70;99.90;;;;;;8316578;28;20007;-62
2021/12/03 07:34:00;;;;;;;;;;;-1.70;99.90;;;;;;8326108;28;19914;-61
2021/12/03 07:38:00;;;;;;;;;;;-1.70;99.90;;;;;;8325350;28;19963;-62
2021/12/03 07:42:01;;;;;;;;;;;-1.70;99.90;;;;;;8311019;28;19924;-61
2021/12/03 07:46:02;;;;;;;;;;;-1.40;99.90;;;;;;8304971;28;19913;-62
2021/12/03 07:50:03;;;;;;;;;;;-1.10;99.90;;;;;;8320808;28;19920;-61
2021/12/03 07:54:04;;;;;;;;;;;-1.00;99.90;;;;;;8326177;28;20411;-61
2021/12/03 07:58:05;;;;;;;;;;;-0.80;99.90;;;;;;8304884;28;19939;-61
2021/12/03 08:02:05;;;;;;;;;;;-0.80;99.90;;;;;;8335112;28;19921;-62
2021/12/03 08:06:09;;;;;;;;;;;-0.70;99.90;;;;;;8340552;28;19909;-62
2021/12/03 08:10:10;;;;;;;;;;;-0.50;99.90;;;;;;8342473;28;19916;-62
2021/12/03 08:14:10;;;;;;;;;;;-0.40;99.90;;;;;;8325855;28;19913;-62
2021/12/03 08:18:11;;;;;;;;;;;-0.50;99.90;;;;;;8326746;28;19914;-61
2021/12/03 08:22:11;;;;;;;;;;;-0.20;99.90;;;;;;8326340;28;19921;-62
2021/12/03 08:26:13;;;;;;;;;;;0.10;99.90;;;;;;8325540;28;19917;-62
2021/12/03 08:30:13;;;;;;;;;;;0.00;99.90;;;;;;8317764;28;19913;-62
2021/12/03 08:34:31;;;;;;;;;;;0.10;99.90;;;;;;8324719;28;19959;-62
2021/12/03 08:38:31;;;;;;;;;;;0.10;99.90;;;;;;8310444;28;20832;-62
2021/12/03 09:15:08;;;;;;;;;;;0.90;99.90;;;;;;8329135;28;20044;-62
2021/12/03 10:14:27;;;;;;;;;;;1.90;99.90;;;;;;8329151;28;22381;-62
2021/12/03 10:18:41;;;;;;;;;;;2.20;99.90;;;;;;8328616;28;20336;-62
2021/12/03 10:48:35;;;;;;;;;;;12.10;98.80;;;;;;8327887;28;19913;-63
2021/12/03 10:52:36;;;;;;;;;;;12.10;97.50;;;;;;8311112;28;20371;-63
2021/12/03 11:01:34;;;;;;;;;;;13.30;93.00;;;;;;8321073;28;19913;-62
2021/12/03 11:19:18;;;;;;;;;;;12.00;93.70;;;;;;8281288;28;19932;-62
2021/12/03 11:40:46;;;;;;;;;;;11.20;90.00;;;;;;8324535;28;19916;-62
2021/12/03 12:55:55;;;;;;;;;;;8.50;95.50;;;;;;8339748;28;19917;-61
2021/12/03 13:28:58;;;;;;;;;;;9.10;97.00;;;;;;8326560;28;20360;-63
2021/12/03 13:59:26;;;;;;;;;;;5.30;99.90;;;;;;8329867;28;19968;-62
2021/12/03 14:41:14;;;;;;;;;;;1.80;99.90;;;;;;8326341;28;19921;-60
2021/12/03 14:45:52;;;;;;;;;;;1.70;99.90;;;;;;8325036;28;19947;-61
2021/12/03 14:58:20;;;;;;;;;;;1.60;99.90;;;;;;8323078;28;20000;-61
2021/12/03 15:02:35;;;;;;;;;;;1.50;99.90;;;;;;8326109;28;19917;-60
2021/12/03 15:06:50;;;;;;;;;;;1.50;99.90;;;;;;8324699;28;19928;-61
2021/12/03 15:11:24;;;;;;;;;;;1.30;99.90;;;;;;8317208;28;19913;-61
2021/12/03 15:28:06;;;;;;;;;;;1.20;99.90;;;;;;8319016;28;19917;-60
2021/12/03 15:36:14;;;;;;;;;;;1.20;99.90;;;;;;8325756;28;19917;-62
2021/12/03 15:57:46;;;;;;;;;;;0.90;99.90;;;;;;8311429;28;19917;-61
2021/12/03 16:10:26;;;;;;;;;;;0.80;99.90;;;;;;8319171;28;19971;-62
2021/12/03 16:30:57;;;;;;;;;;;0.40;99.90;;;;;;8282603;28;19921;-62
2021/12/03 16:43:41;;;;;;;;;;;0.50;99.90;;;;;;8321835;28;20398;-60
2021/12/03 16:52:54;;;;;;;;;;;0.40;99.90;;;;;;8318951;28;19913;-60
2021/12/03 16:56:55;;;;;;;;;;;0.40;99.90;;;;;;8319823;28;19914;-61
2021/12/03 17:01:04;;;;;;;;;;;0.30;99.90;;;;;;8324738;28;20367;-62
2021/12/03 17:05:21;;;;;;;;;;;0.40;99.90;;;;;;8327624;28;19944;-60
2021/12/03 17:10:08;;;;;;;;;;;0.30;99.90;;;;;;8329916;28;19921;-60
2021/12/03 17:14:01;;;;;;;;;;;0.30;99.90;;;;;;8323861;28;19967;-62
2021/12/03 17:47:57;;;;;;;;;;;0.50;99.90;;;;;;8324066;28;19963;-64
2021/12/03 18:00:14;;;;;;;;;;;0.30;99.90;;;;;;8321826;28;19914;-64
2021/12/03 18:04:36;;;;;;;;;;;0.20;99.90;;;;;;8306628;28;19922;-64
2021/12/03 18:43:24;;;;;;;;;;;0.00;99.90;;;;;;8302719;28;19944;-64
2021/12/03 18:56:14;;;;;;;;;;;0.00;99.90;;;;;;8321759;28;19921;-64
2021/12/03 19:00:09;;;;;;;;;;;0.00;99.90;;;;;;8309156;28;19913;-65
2021/12/03 19:04:16;;;;;;;;;;;-0.10;99.90;;;;;;8300496;28;19979;-64
2021/12/03 19:08:32;;;;;;;;;;;-0.30;99.90;;;;;;8317530;28;20020;-65
2021/12/03 19:12:36;;;;;;;;;;;-0.50;99.90;;;;;;8300705;28;20091;-65
2021/12/03 19:16:37;;;;;;;;;;;-0.70;99.90;;;;;;8320607;28;19916;-64
2021/12/03 19:20:41;;;;;;;;;;;-0.80;99.90;;;;;;8304449;28;20628;-64
2021/12/03 19:24:41;;;;;;;;;;;-0.70;99.90;;;;;;8305912;28;19943;-64
2021/12/03 19:28:42;;;;;;;;;;;-0.80;99.90;;;;;;8323238;28;19928;-64
2021/12/03 19:32:43;;;;;;;;;;;-0.80;99.90;;;;;;8298692;28;19975;-65
2021/12/03 19:36:45;;;;;;;;;;;-0.90;99.90;;;;;;8326062;28;19917;-65
2021/12/03 19:40:55;;;;;;;;;;;-0.90;99.90;;;;;;8320871;28;19917;-64
2021/12/03 19:45:00;;;;;;;;;;;-1.00;99.90;;;;;;8324690;28;20295;-64
2021/12/03 19:49:15;;;;;;;;;;;-1.10;99.90;;;;;;8322227;28;19967;-64
2021/12/03 19:53:18;;;;;;;;;;;-1.10;99.90;;;;;;8304981;28;19920;-65
2021/12/03 19:57:19;;;;;;;;;;;-1.10;99.90;;;;;;8328882;28;20402;-65
2021/12/03 20:01:19;;;;;;;;;;;-1.00;99.90;;;;;;8319635;28;19917;-64
2021/12/03 20:05:20;;;;;;;;;;;-1.00;99.90;;;;;;8304830;28;19916;-65
2021/12/03 20:09:24;;;;;;;;;;;-1.00;99.90;;;;;;8322853;28;19925;-64
2021/12/03 20:13:26;;;;;;;;;;;-0.90;99.90;;;;;;8304316;28;19963;-64
2021/12/03 20:17:31;;;;;;;;;;;-1.00;99.90;;;;;;8306202;28;19913;-64
2021/12/03 20:21:34;;;;;;;;;;;-1.00;99.90;;;;;;8320625;28;19914;-64
2021/12/03 20:29:58;;;;;;;;;;;-1.00;99.90;;;;;;8314905;28;19925;-64
2021/12/03 20:37:59;;;;;;;;;;;-1.10;99.90;;;;;;8326202;28;19960;-64
2021/12/03 20:42:05;;;;;;;;;;;-1.00;99.90;;;;;;8316705;28;19916;-64
2021/12/03 20:46:21;;;;;;;;;;;-1.10;99.90;;;;;;8327804;28;19925;-64
2021/12/03 20:54:30;;;;;;;;;;;-1.10;99.90;;;;;;8327928;28;19913;-65
2021/12/03 21:11:33;;;;;;;;;;;-1.10;99.90;;;;;;8333047;28;20028;-65
2021/12/03 21:19:48;;;;;;;;;;;-1.10;99.90;;;;;;8329636;28;20367;-65
2021/12/03 21:23:49;;;;;;;;;;;-1.00;99.90;;;;;;8332336;28;19960;-65
2021/12/03 21:27:56;;;;;;;;;;;-0.90;99.90;;;;;;8312898;28;19920;-64
2021/12/03 21:32:02;;;;;;;;;;;-0.80;99.90;;;;;;8313575;28;19988;-65
2021/12/03 21:40:54;;;;;;;;;;;-0.70;99.90;;;;;;8330557;28;20346;-62
2021/12/03 21:44:45;;;;;;;;;;;-0.60;99.90;;;;;;8330222;28;19920;-62
2021/12/03 21:48:46;;;;;;;;;;;-0.50;99.90;;;;;;8330921;28;20331;-63
2021/12/03 21:52:46;;;;;;;;;;;-0.20;99.90;;;;;;8312439;28;19913;-63
2021/12/03 21:56:47;;;;;;;;;;;-0.10;99.90;;;;;;8334531;28;20338;-63
2021/12/03 22:00:48;;;;;;;;;;;0.00;99.90;;;;;;8355861;28;20315;-62
2021/12/03 22:04:48;;;;;;;;;;;0.00;99.90;;;;;;8335990;28;19963;-62
2021/12/03 22:08:49;;;;;;;;;;;0.20;99.90;;;;;;8363445;28;19918;-63
2021/12/03 22:12:49;;;;;;;;;;;0.40;99.90;;;;;;8324072;28;19917;-63
2021/12/03 22:16:50;;;;;;;;;;;0.60;99.90;;;;;;8312978;28;19919;-62
2021/12/03 22:20:51;;;;;;;;;;;0.80;99.90;;;;;;8333801;28;19917;-62
2021/12/03 22:24:52;;;;;;;;;;;0.80;99.90;;;;;;8363076;28;19909;-63
2021/12/03 22:28:53;;;;;;;;;;;1.00;99.90;;;;;;8358887;28;19936;-63
2021/12/03 22:32:53;;;;;;;;;;;1.10;99.90;;;;;;8332184;28;20330;-62
2021/12/03 22:36:54;;;;;;;;;;;1.10;99.90;;;;;;8363024;28;20293;-62
2021/12/03 22:40:54;;;;;;;;;;;1.10;99.90;;;;;;8324759;28;20007;-62
2021/12/03 22:44:55;;;;;;;;;;;1.10;99.90;;;;;;8312048;28;20275;-61
2021/12/03 22:53:05;;;;;;;;;;;1.10;99.90;;;;;;8329843;28;20019;-62
2021/12/03 22:57:06;;;;;;;;;;;1.20;99.90;;;;;;8329628;28;19917;-63
2021/12/03 23:01:08;;;;;;;;;;;1.00;99.90;;;;;;8311122;28;19909;-63
2021/12/03 23:05:08;;;;;;;;;;;1.10;99.90;;;;;;8329886;28;19913;-62
2021/12/03 23:09:08;;;;;;;;;;;1.20;99.90;;;;;;8362146;28;20413;-62
2021/12/03 23:13:09;;;;;;;;;;;1.10;99.90;;;;;;8361866;28;20614;-62
2021/12/03 23:17:09;;;;;;;;;;;1.10;99.90;;;;;;8344207;28;19917;-62
2021/12/03 23:21:10;;;;;;;;;;;1.20;99.90;;;;;;8310122;28;20275;-62
2021/12/03 23:25:12;;;;;;;;;;;1.10;99.90;;;;;;8328725;28;19967;-62
2021/12/03 23:29:14;;;;;;;;;;;1.10;99.90;;;;;;8343582;28;19913;-63
2021/12/03 23:33:17;;;;;;;;;;;1.00;99.90;;;;;;8360963;28;19913;-62
2021/12/03 23:37:18;;;;;;;;;;;0.90;99.90;;;;;;8342835;28;19921;-63
2021/12/03 23:41:18;;;;;;;;;;;1.00;99.90;;;;;;8324534;28;20550;-63
2021/12/03 23:45:19;;;;;;;;;;;1.00;99.90;;;;;;8327375;28;19920;-63
2021/12/03 23:49:21;;;;;;;;;;;1.00;99.90;;;;;;8326759;28;19913;-62
2021/12/03 23:53:21;;;;;;;;;;;1.00;99.90;;;;;;8327737;28;20397;-62
2021/12/03 23:57:22;;;;;;;;;;;1.10;99.90;;;;;;8345147;28;19917;-63
